Time;durP1;ratioP1;P1;durP2;ratioP2;P2;SDS_P1;SDS_P2;PMS_P1;PMS_P2;Temp;Humidity;BMP_temperature;BMP_pressure;BME280_temperature;BME280_humidity;BME280_pressure;Samples;Min_cycle;Max_cycle;Signal;HPM_P1;HPM_P2
2021/12/16 00:02:38;;;;;;;21.10;10.03;;;8.70;99.90;;;;;;4990402;28;20465;-75
2021/12/16 00:05:22;;;;;;;20.50;11.13;;;8.70;99.90;;;;;;4987258;28;20208;-75
2021/12/16 00:08:01;;;;;;;19.83;10.93;;;8.70;99.90;;;;;;4984315;28;20197;-74
2021/12/16 00:10:35;;;;;;;22.37;12.27;;;8.70;99.90;;;;;;4990403;28;20201;-76
2021/12/16 00:30:04;;;;;;;19.93;11.07;;;8.70;99.90;;;;;;4976632;28;20200;-75
2021/12/16 00:35:06;;;;;;;21.47;10.70;;;8.70;99.90;;;;;;4991304;28;20204;-75
2021/12/16 00:37:34;;;;;;;21.43;10.70;;;8.60;99.90;;;;;;4992008;28;20230;-75
2021/12/16 00:40:03;;;;;;;22.70;11.07;;;8.60;99.90;;;;;;4991928;28;20600;-75
2021/12/16 00:42:48;;;;;;;21.43;11.23;;;8.60;99.90;;;;;;4990771;28;20286;-72
2021/12/16 00:47:51;;;;;;;22.47;10.53;;;8.50;99.90;;;;;;4992121;28;20603;-74
2021/12/16 00:55:48;;;;;;;24.00;11.40;;;8.60;99.90;;;;;;4989503;28;20218;-75
2021/12/16 00:58:18;;;;;;;23.20;11.97;;;8.60;99.90;;;;;;4990407;28;20204;-74
2021/12/16 01:00:55;;;;;;;22.73;11.93;;;8.70;99.90;;;;;;4990807;28;20780;-75
2021/12/16 01:03:36;;;;;;;22.30;10.60;;;8.50;99.90;;;;;;4987327;28;20228;-74
2021/12/16 01:10:03;;;;;;;21.13;10.73;;;8.60;99.90;;;;;;4972758;28;20198;-74
2021/12/16 01:34:31;;;;;;;23.67;11.50;;;8.70;99.90;;;;;;4988581;28;20233;-74
2021/12/16 01:50:16;;;;;;;24.43;12.63;;;8.70;99.90;;;;;;4987820;28;20205;-74
2021/12/16 01:55:24;;;;;;;22.67;10.87;;;8.90;99.90;;;;;;4990024;28;20205;-77
2021/12/16 01:57:57;;;;;;;20.20;10.73;;;8.80;99.90;;;;;;4988186;28;20247;-74
2021/12/16 02:00:59;;;;;;;20.70;11.07;;;8.70;99.90;;;;;;4985261;28;20228;-74
2021/12/16 02:03:44;;;;;;;21.37;12.07;;;8.70;99.90;;;;;;4981360;28;20216;-74
2021/12/16 02:08:49;;;;;;;23.27;11.30;;;8.70;99.90;;;;;;4989810;28;20189;-74
2021/12/16 02:39:05;;;;;;;19.63;10.30;;;8.50;99.90;;;;;;4990540;28;20279;-74
2021/12/16 02:41:32;;;;;;;21.77;12.33;;;8.50;99.90;;;;;;4989027;28;20684;-74
2021/12/16 02:44:16;;;;;;;19.27;11.50;;;8.40;99.90;;;;;;4989834;28;20224;-74
2021/12/16 02:49:31;;;;;;;19.20;11.03;;;8.50;99.90;;;;;;4989124;28;20201;-74
2021/12/16 02:51:58;;;;;;;17.90;10.53;;;8.40;99.90;;;;;;4987709;28;20207;-77
2021/12/16 02:54:27;;;;;;;20.07;10.63;;;8.30;99.90;;;;;;4988891;28;20220;-73
2021/12/16 02:56:55;;;;;;;22.57;11.67;;;8.30;99.90;;;;;;4987831;28;20205;-74
2021/12/16 02:59:27;;;;;;;23.73;12.10;;;8.30;99.90;;;;;;4988082;28;20215;-74
2021/12/16 03:01:57;;;;;;;23.40;11.47;;;8.40;99.90;;;;;;4990171;28;20198;-75
2021/12/16 03:04:26;;;;;;;23.53;12.40;;;8.50;99.90;;;;;;4992650;28;20217;-74
2021/12/16 03:06:57;;;;;;;27.60;11.27;;;8.40;99.90;;;;;;4990582;28;20196;-74
2021/12/16 03:09:58;;;;;;;19.23;10.70;;;8.40;99.90;;;;;;4994248;28;20261;-74
2021/12/16 03:15:13;;;;;;;21.23;11.70;;;8.30;99.90;;;;;;4993236;28;20195;-73
2021/12/16 03:17:52;;;;;;;21.03;11.03;;;8.20;99.90;;;;;;4991980;28;20201;-74
2021/12/16 03:23:39;;;;;;;18.70;10.83;;;8.30;99.90;;;;;;4991372;28;20220;-73
2021/12/16 03:28:59;;;;;;;20.07;10.97;;;8.30;99.90;;;;;;4996971;28;20652;-75
2021/12/16 03:34:32;;;;;;;20.77;11.93;;;8.20;99.90;;;;;;4994401;28;20285;-75
2021/12/16 03:39:47;;;;;;;22.33;12.33;;;8.40;99.90;;;;;;4989306;28;20254;-77
2021/12/16 03:42:18;;;;;;;22.23;11.57;;;8.30;99.90;;;;;;4991165;28;20629;-74
2021/12/16 03:44:52;;;;;;;19.70;11.43;;;8.40;99.90;;;;;;4988210;28;20225;-70
2021/12/16 03:47:34;;;;;;;22.83;11.83;;;8.20;99.90;;;;;;4988045;28;20207;-71
2021/12/16 03:50:03;;;;;;;19.30;11.17;;;8.30;99.90;;;;;;4992146;28;20193;-71
2021/12/16 03:52:30;;;;;;;20.47;11.40;;;8.40;99.90;;;;;;4990292;28;20200;-76
2021/12/16 03:54:58;;;;;;;20.53;12.00;;;8.30;99.90;;;;;;4991173;28;20200;-77
2021/12/16 03:57:27;;;;;;;25.40;12.40;;;8.30;99.90;;;;;;4988037;28;20201;-77
2021/12/16 03:59:53;;;;;;;18.83;11.07;;;8.20;99.90;;;;;;4990785;28;20200;-74
2021/12/16 04:02:27;;;;;;;19.43;10.67;;;8.20;99.90;;;;;;4991477;28;20204;-75
2021/12/16 04:04:54;;;;;;;20.43;11.30;;;8.30;99.90;;;;;;4987455;28;20223;-74
2021/12/16 04:07:31;;;;;;;21.17;11.20;;;8.40;99.90;;;;;;4988069;28;20192;-74
2021/12/16 04:09:58;;;;;;;22.70;10.90;;;8.30;99.90;;;;;;4990166;28;20212;-73
2021/12/16 04:12:27;;;;;;;23.37;11.53;;;8.30;99.90;;;;;;4991523;28;20195;-75
2021/12/16 04:14:57;;;;;;;19.97;11.53;;;8.30;99.90;;;;;;4986671;28;20207;-74
2021/12/16 04:17:27;;;;;;;23.20;11.93;;;8.30;99.90;;;;;;4989157;28;20196;-75
2021/12/16 04:19:56;;;;;;;22.47;11.73;;;8.20;99.90;;;;;;4988691;28;20204;-75
2021/12/16 04:22:29;;;;;;;20.90;11.93;;;8.20;99.90;;;;;;4983875;28;20338;-77
2021/12/16 04:24:58;;;;;;;20.27;11.53;;;8.30;99.90;;;;;;4987490;28;20224;-74
2021/12/16 04:27:25;;;;;;;18.60;10.90;;;8.30;99.90;;;;;;4990749;28;20196;-75
2021/12/16 04:29:52;;;;;;;17.53;10.10;;;8.30;99.90;;;;;;4991901;28;20195;-74
2021/12/16 04:32:20;;;;;;;22.67;11.00;;;8.30;99.90;;;;;;4991853;28;20212;-73
2021/12/16 04:34:49;;;;;;;19.57;11.10;;;8.30;99.90;;;;;;4992634;28;20200;-75
2021/12/16 04:37:15;;;;;;;17.43;10.30;;;8.30;99.90;;;;;;4989708;28;20581;-74
2021/12/16 04:39:44;;;;;;;21.07;10.73;;;8.30;99.90;;;;;;4992602;28;20193;-74
2021/12/16 04:42:14;;;;;;;21.03;10.60;;;8.30;99.90;;;;;;4989913;28;20204;-74
2021/12/16 04:44:41;;;;;;;18.67;11.40;;;8.40;99.90;;;;;;4991945;28;20303;-74
2021/12/16 04:47:10;;;;;;;21.37;11.33;;;8.30;99.90;;;;;;4992274;28;20200;-76
2021/12/16 04:49:37;;;;;;;23.53;11.90;;;8.30;99.90;;;;;;4991494;28;20220;-74
2021/12/16 04:52:16;;;;;;;22.20;12.13;;;8.60;99.90;;;;;;4992236;28;20188;-74
2021/12/16 04:54:45;;;;;;;20.37;12.23;;;8.60;99.90;;;;;;4990668;28;20601;-74
2021/12/16 04:57:12;;;;;;;20.13;10.87;;;8.50;99.90;;;;;;4991046;28;20211;-74
2021/12/16 04:59:39;;;;;;;17.70;9.97;;;8.40;99.90;;;;;;4990989;28;20197;-74
2021/12/16 05:02:09;;;;;;;20.00;10.93;;;8.40;99.90;;;;;;4992220;28;20204;-74
2021/12/16 05:04:37;;;;;;;18.30;10.77;;;8.40;99.90;;;;;;4991855;28;20221;-74
2021/12/16 05:07:05;;;;;;;21.60;10.77;;;8.30;99.90;;;;;;4987600;28;20194;-74
2021/12/16 05:12:10;;;;;;;17.60;10.23;;;8.30;99.90;;;;;;4991292;28;20195;-74
2021/12/16 05:14:37;;;;;;;23.23;12.13;;;8.30;99.90;;;;;;4992037;28;20219;-74
2021/12/16 05:17:11;;;;;;;20.20;11.23;;;8.30;99.90;;;;;;4990478;28;20247;-74
2021/12/16 05:19:41;;;;;;;20.77;11.13;;;8.40;99.90;;;;;;4988178;28;20688;-74
2021/12/16 05:25:17;;;;;;;19.93;11.17;;;8.40;99.90;;;;;;4985239;28;20250;-74
2021/12/16 05:27:44;;;;;;;23.20;11.13;;;8.40;99.90;;;;;;4987924;28;20197;-73
2021/12/16 05:30:12;;;;;;;21.97;11.47;;;8.40;99.90;;;;;;4990453;28;20824;-74
2021/12/16 05:32:44;;;;;;;20.97;11.43;;;8.60;99.90;;;;;;4989707;28;20348;-75
2021/12/16 05:35:17;;;;;;;24.67;11.67;;;8.60;99.90;;;;;;4989732;28;20209;-74
2021/12/16 05:37:45;;;;;;;22.53;11.50;;;8.50;99.90;;;;;;4991521;28;20665;-74
2021/12/16 05:40:15;;;;;;;20.73;11.57;;;8.60;99.90;;;;;;4990113;28;20203;-74
2021/12/16 05:42:42;;;;;;;26.57;12.53;;;8.40;99.90;;;;;;4989693;28;20230;-74
2021/12/16 05:45:11;;;;;;;21.10;11.00;;;8.30;99.90;;;;;;4989690;28;20686;-76
2021/12/16 05:47:38;;;;;;;20.50;11.20;;;8.20;99.90;;;;;;4990110;28;20668;-74
2021/12/16 05:50:08;;;;;;;19.73;10.87;;;8.10;99.90;;;;;;4992319;28;20480;-74
2021/12/16 05:52:35;;;;;;;22.70;11.07;;;8.10;99.90;;;;;;4983712;28;20648;-74
2021/12/16 05:55:04;;;;;;;19.17;10.77;;;8.10;99.90;;;;;;4991716;28;20193;-75
2021/12/16 05:57:31;;;;;;;23.20;12.10;;;8.10;99.90;;;;;;4991072;28;20200;-74
2021/12/16 05:59:57;;;;;;;20.07;11.37;;;8.30;99.90;;;;;;4991356;28;20196;-75
2021/12/16 06:02:24;;;;;;;20.30;11.33;;;8.30;99.90;;;;;;4987893;28;20266;-74
2021/12/16 06:04:51;;;;;;;21.97;11.13;;;8.40;99.90;;;;;;4984008;28;20192;-74
2021/12/16 06:07:19;;;;;;;22.97;12.00;;;8.30;99.90;;;;;;4990909;28;20199;-74
2021/12/16 06:09:47;;;;;;;22.83;12.00;;;8.20;99.90;;;;;;4989026;28;20607;-75
2021/12/16 06:12:15;;;;;;;24.07;12.20;;;8.20;99.90;;;;;;4984966;28;20691;-73
2021/12/16 06:15:18;;;;;;;20.53;11.60;;;8.20;99.90;;;;;;4987605;28;20220;-74
2021/12/16 06:28:18;;;;;;;22.40;11.70;;;8.50;99.90;;;;;;4990696;28;20201;-74
2021/12/16 06:30:45;;;;;;;20.67;10.90;;;8.50;99.90;;;;;;4988972;28;20193;-74
2021/12/16 06:33:15;;;;;;;20.67;11.50;;;8.40;99.90;;;;;;4989829;28;20220;-74
2021/12/16 06:35:44;;;;;;;23.90;11.43;;;8.50;99.90;;;;;;4989225;28;20199;-76
2021/12/16 06:38:11;;;;;;;21.30;11.10;;;8.50;99.90;;;;;;4991168;28;20215;-75
2021/12/16 06:40:38;;;;;;;22.80;10.83;;;8.30;99.90;;;;;;4988228;28;20212;-74
2021/12/16 06:43:08;;;;;;;23.10;11.47;;;8.30;99.90;;;;;;4990366;28;20239;-74
2021/12/16 06:45:39;;;;;;;23.97;10.87;;;8.20;99.90;;;;;;4989125;28;20228;-74
2021/12/16 06:48:12;;;;;;;21.27;11.83;;;8.20;99.90;;;;;;4987889;28;20201;-73
2021/12/16 06:53:28;;;;;;;21.47;10.70;;;8.20;99.90;;;;;;4987025;28;20568;-74
2021/12/16 06:56:11;;;;;;;22.93;12.33;;;8.20;99.90;;;;;;4989104;28;20196;-74
2021/12/16 06:58:47;;;;;;;23.00;11.73;;;8.20;99.90;;;;;;4988047;28;20208;-74
2021/12/16 07:01:30;;;;;;;24.37;12.27;;;8.40;99.90;;;;;;4989291;28;20586;-70
2021/12/16 07:03:58;;;;;;;25.70;12.67;;;8.30;99.90;;;;;;4985082;28;20220;-74
2021/12/16 07:06:30;;;;;;;23.00;11.87;;;8.30;99.90;;;;;;4988451;28;20267;-77
2021/12/16 07:09:13;;;;;;;20.73;11.03;;;8.20;99.90;;;;;;4987888;28;20212;-76
2021/12/16 07:11:42;;;;;;;23.60;11.90;;;8.20;99.90;;;;;;4987297;28;20204;-74
2021/12/16 07:14:14;;;;;;;24.37;11.57;;;8.30;99.90;;;;;;4990512;28;20230;-74
2021/12/16 07:16:46;;;;;;;24.50;12.23;;;8.20;99.90;;;;;;4989394;28;20204;-74
2021/12/16 07:19:13;;;;;;;23.07;12.13;;;8.40;99.90;;;;;;4989470;28;20196;-74
2021/12/16 07:21:41;;;;;;;18.87;11.10;;;8.40;99.90;;;;;;4990112;28;20200;-72
2021/12/16 07:24:10;;;;;;;27.80;12.37;;;8.30;99.90;;;;;;4989655;28;20238;-74
2021/12/16 07:26:37;;;;;;;25.17;11.93;;;8.30;99.90;;;;;;4990219;28;20295;-74
2021/12/16 07:29:06;;;;;;;23.83;11.27;;;8.30;99.90;;;;;;4990144;28;20491;-74
2021/12/16 07:31:33;;;;;;;20.73;11.67;;;8.30;99.90;;;;;;4988740;28;20204;-72
2021/12/16 07:34:00;;;;;;;21.47;11.07;;;8.20;99.90;;;;;;4990063;28;20217;-76
2021/12/16 07:36:30;;;;;;;19.17;11.53;;;8.10;99.90;;;;;;4989567;28;20207;-72
2021/12/16 07:38:57;;;;;;;19.93;11.63;;;8.20;99.90;;;;;;4985142;28;20211;-77
2021/12/16 07:41:31;;;;;;;21.40;11.60;;;8.10;99.90;;;;;;4990035;28;20208;-74
2021/12/16 07:44:11;;;;;;;23.30;11.63;;;8.20;99.90;;;;;;4990140;28;20216;-74
2021/12/16 07:46:41;;;;;;;21.63;11.27;;;8.30;99.90;;;;;;4992330;28;20220;-73
2021/12/16 07:49:11;;;;;;;21.33;11.67;;;8.30;99.90;;;;;;4994313;28;20205;-74
2021/12/16 07:51:40;;;;;;;23.77;12.20;;;8.30;99.90;;;;;;4989416;28;20193;-74
2021/12/16 07:54:07;;;;;;;24.10;11.60;;;8.30;99.90;;;;;;4988586;28;20220;-74
2021/12/16 07:56:34;;;;;;;23.83;12.43;;;8.30;99.90;;;;;;4982520;28;20196;-76
2021/12/16 07:59:02;;;;;;;24.63;12.53;;;8.20;99.90;;;;;;4992988;28;20216;-77
2021/12/16 08:01:28;;;;;;;21.07;11.93;;;8.20;99.90;;;;;;4988651;28;20200;-74
2021/12/16 08:03:56;;;;;;;21.97;11.87;;;8.30;99.90;;;;;;4993057;28;20225;-74
2021/12/16 08:06:27;;;;;;;20.30;11.30;;;8.30;99.90;;;;;;4989244;28;20217;-74
2021/12/16 08:08:58;;;;;;;23.67;12.20;;;8.30;99.90;;;;;;4992012;28;20193;-75
2021/12/16 08:11:28;;;;;;;23.17;12.63;;;8.30;99.90;;;;;;5004466;28;20199;-71
2021/12/16 08:14:02;;;;;;;24.63;12.97;;;8.30;99.90;;;;;;4986397;28;20664;-74
2021/12/16 08:16:28;;;;;;;22.67;12.97;;;8.30;99.90;;;;;;4989206;28;20641;-76
2021/12/16 08:18:55;;;;;;;23.23;13.30;;;8.40;99.90;;;;;;5007421;28;20201;-74
2021/12/16 08:21:24;;;;;;;22.70;11.40;;;8.60;99.90;;;;;;4990292;28;20203;-74
2021/12/16 08:23:51;;;;;;;25.40;12.53;;;8.70;99.90;;;;;;4990568;28;20244;-73
2021/12/16 08:26:18;;;;;;;28.73;13.23;;;8.70;99.90;;;;;;4991166;28;20317;-71
2021/12/16 08:28:44;;;;;;;24.83;12.00;;;8.40;99.90;;;;;;4993464;28;20203;-72
2021/12/16 08:31:11;;;;;;;22.87;12.10;;;8.30;99.90;;;;;;4992155;28;20212;-76
2021/12/16 08:33:39;;;;;;;21.80;12.27;;;8.20;99.90;;;;;;4990899;28;20220;-74
2021/12/16 08:36:08;;;;;;;22.50;12.13;;;8.20;99.90;;;;;;4988893;28;20212;-76
2021/12/16 08:38:37;;;;;;;23.00;12.63;;;8.30;99.90;;;;;;4989171;28;20659;-74
2021/12/16 08:41:08;;;;;;;26.30;12.67;;;8.30;99.90;;;;;;4990445;28;20199;-74
2021/12/16 08:43:41;;;;;;;24.20;12.90;;;8.40;99.90;;;;;;4992662;28;20313;-73
2021/12/16 08:46:12;;;;;;;24.53;12.50;;;8.60;99.90;;;;;;4989456;28;20590;-74
2021/12/16 08:48:41;;;;;;;21.40;11.90;;;8.90;99.90;;;;;;4989180;28;20237;-74
2021/12/16 08:51:09;;;;;;;23.87;12.17;;;8.80;99.90;;;;;;4992656;28;20259;-74
2021/12/16 08:53:36;;;;;;;24.50;12.43;;;8.70;99.90;;;;;;4991601;28;20221;-74
2021/12/16 08:56:05;;;;;;;21.43;12.73;;;8.70;99.90;;;;;;4988427;28;20225;-74
2021/12/16 08:58:32;;;;;;;21.73;12.27;;;8.70;99.90;;;;;;4986627;28;20663;-74
2021/12/16 09:01:11;;;;;;;21.73;12.23;;;8.70;99.90;;;;;;4985554;28;20202;-73
2021/12/16 09:03:38;;;;;;;22.83;12.70;;;8.80;99.90;;;;;;4987056;28;20236;-75
2021/12/16 09:06:05;;;;;;;26.67;13.20;;;8.70;99.90;;;;;;4991447;28;20234;-74
2021/12/16 09:08:32;;;;;;;24.90;12.30;;;8.50;99.90;;;;;;4990514;28;20200;-75
2021/12/16 09:11:03;;;;;;;23.70;13.17;;;8.70;99.90;;;;;;4988623;28;20197;-74
2021/12/16 09:13:30;;;;;;;29.30;12.10;;;8.90;99.90;;;;;;4990432;28;20550;-75
2021/12/16 09:16:01;;;;;;;22.30;12.00;;;9.30;99.90;;;;;;4989905;28;20204;-74
2021/12/16 09:18:30;;;;;;;23.07;11.63;;;9.50;99.90;;;;;;4991651;28;20189;-75
2021/12/16 09:21:00;;;;;;;20.70;11.83;;;9.60;99.90;;;;;;4988348;28;20654;-75
2021/12/16 09:23:40;;;;;;;20.37;11.73;;;9.80;99.90;;;;;;4978756;28;20295;-75
2021/12/16 09:26:08;;;;;;;21.47;11.23;;;9.80;99.90;;;;;;4990084;28;20235;-77
2021/12/16 09:28:36;;;;;;;22.87;11.43;;;9.90;99.90;;;;;;4990491;28;20200;-74
2021/12/16 09:31:10;;;;;;;20.37;10.77;;;9.70;99.90;;;;;;4988183;28;20693;-74
2021/12/16 09:33:42;;;;;;;18.00;11.47;;;9.70;99.90;;;;;;4986852;28;20644;-74
2021/12/16 09:36:14;;;;;;;21.33;11.03;;;9.70;99.90;;;;;;4985522;28;20255;-74
2021/12/16 09:38:42;;;;;;;24.03;11.77;;;9.70;99.90;;;;;;4991233;28;20673;-74
2021/12/16 09:41:09;;;;;;;21.87;11.83;;;9.80;99.90;;;;;;4984064;28;20210;-74
2021/12/16 09:43:41;;;;;;;22.73;12.07;;;9.90;99.90;;;;;;4989472;28;20224;-75
2021/12/16 09:46:12;;;;;;;21.70;11.43;;;10.20;99.90;;;;;;4989616;28;20210;-75
2021/12/16 09:48:41;;;;;;;21.57;12.00;;;10.40;99.90;;;;;;4988344;28;20190;-74
2021/12/16 09:51:11;;;;;;;21.90;11.50;;;10.60;99.90;;;;;;4988571;28;20624;-76
2021/12/16 09:53:39;;;;;;;22.73;11.17;;;10.50;99.90;;;;;;4991611;28;20707;-74
2021/12/16 09:56:09;;;;;;;20.87;11.27;;;10.60;99.90;;;;;;4991315;28;20190;-75
2021/12/16 09:58:43;;;;;;;21.43;11.30;;;10.70;99.90;;;;;;4991516;28;20199;-74
2021/12/16 10:01:13;;;;;;;22.73;11.83;;;10.80;99.90;;;;;;4987169;28;20194;-75
2021/12/16 10:03:42;;;;;;;19.80;11.03;;;10.80;99.90;;;;;;4990616;28;20227;-73
2021/12/16 10:06:10;;;;;;;22.27;11.30;;;10.60;99.90;;;;;;4989741;28;20200;-73
2021/12/16 10:08:37;;;;;;;21.27;11.17;;;10.60;99.90;;;;;;4987140;28;20199;-72
2021/12/16 10:11:05;;;;;;;21.50;11.40;;;10.70;99.90;;;;;;4990018;28;20205;-74
2021/12/16 10:13:43;;;;;;;22.37;11.27;;;10.90;99.90;;;;;;4989384;28;20217;-73
2021/12/16 10:18:37;;;;;;;25.00;11.57;;;11.00;99.90;;;;;;4990647;28;20648;-74
2021/12/16 10:21:07;;;;;;;19.20;10.33;;;11.10;99.90;;;;;;4990035;28;20208;-73
2021/12/16 10:23:43;;;;;;;22.00;11.00;;;11.10;99.90;;;;;;4989475;28;20227;-75
2021/12/16 10:26:21;;;;;;;17.30;10.90;;;11.30;99.90;;;;;;4986780;28;20792;-74
2021/12/16 10:28:51;;;;;;;21.47;10.93;;;11.50;99.90;;;;;;4988968;28;20561;-74
2021/12/16 10:31:34;;;;;;;22.00;11.03;;;11.50;99.90;;;;;;4980233;28;20194;-74
2021/12/16 10:34:05;;;;;;;18.07;10.23;;;11.50;99.90;;;;;;4988291;28;20224;-74
2021/12/16 10:36:39;;;;;;;22.27;11.83;;;11.60;99.90;;;;;;4988779;28;20674;-73
2021/12/16 10:39:25;;;;;;;20.77;10.50;;;11.80;99.90;;;;;;4988059;28;20206;-74
2021/12/16 10:42:04;;;;;;;19.43;10.57;;;11.80;99.90;;;;;;4986063;28;20250;-72
2021/12/16 10:44:35;;;;;;;17.97;10.10;;;11.80;99.90;;;;;;4988503;28;20369;-75
2021/12/16 10:47:13;;;;;;;20.27;11.40;;;11.90;99.90;;;;;;4988139;28;20217;-75
2021/12/16 10:49:49;;;;;;;17.40;10.30;;;12.10;99.90;;;;;;4989870;28;20289;-79
2021/12/16 10:52:22;;;;;;;20.97;11.27;;;12.00;99.90;;;;;;4987011;28;20206;-74
2021/12/16 10:54:50;;;;;;;19.73;11.13;;;11.70;99.90;;;;;;4987359;28;20569;-73
2021/12/16 10:57:20;;;;;;;21.13;10.33;;;11.80;99.90;;;;;;4986437;28;20676;-74
2021/12/16 10:59:53;;;;;;;21.03;11.67;;;11.90;99.90;;;;;;4980706;28;20205;-74
2021/12/16 11:02:25;;;;;;;22.93;11.63;;;12.00;99.90;;;;;;4987311;28;20212;-73
2021/12/16 11:05:05;;;;;;;23.77;12.23;;;12.10;99.90;;;;;;4989740;28;20207;-73
2021/12/16 11:07:35;;;;;;;20.33;11.77;;;11.70;99.90;;;;;;4987825;28;20224;-73
2021/12/16 11:10:25;;;;;;;24.93;12.20;;;11.70;99.90;;;;;;4980680;28;20200;-73
2021/12/16 11:12:52;;;;;;;23.37;11.50;;;11.80;99.90;;;;;;4984650;28;20274;-72
2021/12/16 11:15:32;;;;;;;22.63;11.77;;;11.70;99.90;;;;;;4988781;28;20203;-79
2021/12/16 11:18:05;;;;;;;25.30;12.70;;;11.70;99.90;;;;;;4990404;28;20197;-71
2021/12/16 11:20:37;;;;;;;24.50;12.77;;;11.80;99.90;;;;;;4988408;28;20196;-75
2021/12/16 11:23:17;;;;;;;20.00;12.37;;;11.60;99.90;;;;;;4990800;28;20217;-74
2021/12/16 11:25:52;;;;;;;25.70;12.90;;;11.60;99.90;;;;;;4990801;28;20213;-74
2021/12/16 11:28:37;;;;;;;22.00;12.73;;;11.60;99.90;;;;;;4989712;28;20215;-77
2021/12/16 11:31:20;;;;;;;24.17;14.10;;;11.70;99.90;;;;;;4986086;28;20216;-75
2021/12/16 11:33:53;;;;;;;24.00;13.23;;;11.20;99.90;;;;;;4992033;28;20211;-77
2021/12/16 11:36:37;;;;;;;26.03;14.07;;;11.00;99.90;;;;;;4991118;28;20200;-76
2021/12/16 11:39:11;;;;;;;23.00;13.30;;;11.00;99.90;;;;;;4986075;28;20207;-74
2021/12/16 11:41:40;;;;;;;24.63;13.17;;;11.20;99.90;;;;;;4991098;28;20195;-74
2021/12/16 11:44:12;;;;;;;24.60;13.43;;;11.30;99.90;;;;;;4988340;28;20250;-74
2021/12/16 11:47:19;;;;;;;26.10;13.80;;;11.50;99.90;;;;;;4991438;28;20266;-74
2021/12/16 11:50:01;;;;;;;23.57;13.47;;;11.70;99.90;;;;;;4993100;28;20730;-74
2021/12/16 11:52:39;;;;;;;24.17;13.40;;;11.80;99.90;;;;;;4988654;28;20205;-74
2021/12/16 11:55:11;;;;;;;25.03;12.83;;;11.70;99.90;;;;;;5001328;28;20197;-72
2021/12/16 11:58:03;;;;;;;23.40;13.70;;;11.70;99.90;;;;;;4987050;28;20208;-75
2021/12/16 12:00:35;;;;;;;25.20;13.70;;;11.60;99.90;;;;;;4989097;28;20209;-75
2021/12/16 12:03:06;;;;;;;24.27;14.20;;;11.40;99.90;;;;;;4993197;28;20307;-74
2021/12/16 12:05:40;;;;;;;23.87;13.03;;;11.20;99.90;;;;;;4995942;28;20357;-75
2021/12/16 12:08:23;;;;;;;22.20;13.27;;;11.40;99.90;;;;;;4995627;28;20226;-76
2021/12/16 12:11:16;;;;;;;26.60;13.47;;;11.40;99.90;;;;;;4988373;28;20212;-74
2021/12/16 12:13:48;;;;;;;24.83;13.17;;;11.50;99.90;;;;;;4986334;28;20264;-73
2021/12/16 12:16:23;;;;;;;26.47;14.30;;;11.50;99.90;;;;;;4987274;28;20228;-72
2021/12/16 12:18:55;;;;;;;22.13;13.43;;;11.70;99.90;;;;;;4998143;28;20230;-74
2021/12/16 12:21:21;;;;;;;22.73;12.93;;;11.70;99.90;;;;;;4991260;28;20201;-75
2021/12/16 12:23:55;;;;;;;24.77;13.00;;;11.70;99.90;;;;;;4988814;28;20217;-72
2021/12/16 12:26:24;;;;;;;23.93;13.20;;;11.80;99.90;;;;;;4983914;28;20229;-77
2021/12/16 12:28:56;;;;;;;24.20;13.10;;;11.80;99.90;;;;;;4989059;28;20696;-77
2021/12/16 12:31:27;;;;;;;22.23;12.73;;;11.70;99.90;;;;;;4990514;28;20199;-82
2021/12/16 12:33:55;;;;;;;23.53;12.50;;;11.70;99.90;;;;;;4988466;28;20238;-80
2021/12/16 12:36:23;;;;;;;26.67;12.33;;;11.60;99.90;;;;;;4989053;28;20202;-76
2021/12/16 12:38:52;;;;;;;23.17;12.70;;;11.70;99.90;;;;;;4986190;28;20202;-76
2021/12/16 12:41:20;;;;;;;20.00;12.03;;;11.70;99.90;;;;;;4987762;28;20205;-73
2021/12/16 12:43:47;;;;;;;24.33;12.47;;;11.80;99.90;;;;;;4986589;28;20243;-80
2021/12/16 12:46:18;;;;;;;21.77;12.57;;;11.80;99.90;;;;;;4986454;28;20196;-75
2021/12/16 12:48:47;;;;;;;21.70;12.93;;;11.80;99.90;;;;;;4990005;28;20217;-74
2021/12/16 12:51:14;;;;;;;22.77;12.63;;;11.90;99.90;;;;;;4991579;28;20200;-76
2021/12/16 12:53:47;;;;;;;21.07;12.37;;;11.90;99.90;;;;;;4991023;28;20234;-75
2021/12/16 12:56:22;;;;;;;26.17;13.20;;;11.90;99.90;;;;;;4990340;28;20198;-78
2021/12/16 12:58:58;;;;;;;23.13;12.17;;;11.90;99.90;;;;;;4989882;28;20209;-77
2021/12/16 13:01:51;;;;;;;22.00;11.67;;;11.80;99.90;;;;;;4989925;28;20295;-75
2021/12/16 13:04:23;;;;;;;23.50;12.40;;;11.90;99.90;;;;;;4988930;28;20236;-76
2021/12/16 13:06:57;;;;;;;24.47;13.97;;;12.00;99.90;;;;;;4990778;28;20208;-77
2021/12/16 13:09:41;;;;;;;20.50;12.63;;;12.10;99.90;;;;;;4988019;28;20222;-78
2021/12/16 13:12:29;;;;;;;25.97;13.20;;;12.00;99.90;;;;;;4981917;28;20194;-75
2021/12/16 13:15:06;;;;;;;24.27;13.30;;;12.10;99.90;;;;;;4985087;28;20201;-75
2021/12/16 13:23:26;;;;;;;24.80;13.60;;;12.10;99.90;;;;;;4989241;28;20597;-79
2021/12/16 13:27:00;;;;;;;23.67;13.17;;;12.10;99.90;;;;;;4981757;28;20217;-76
2021/12/16 13:29:38;;;;;;;20.57;11.07;;;12.10;99.90;;;;;;4989043;28;20223;-77
2021/12/16 13:32:19;;;;;;;23.20;13.27;;;12.00;99.90;;;;;;4987667;28;20190;-79
2021/12/16 13:35:12;;;;;;;26.70;12.83;;;12.00;99.90;;;;;;4991575;28;20211;-77
2021/12/16 13:37:47;;;;;;;23.03;11.97;;;12.10;99.90;;;;;;4988704;28;20219;-76
2021/12/16 13:40:19;;;;;;;24.67;11.50;;;12.20;99.90;;;;;;4989493;28;20205;-80
2021/12/16 13:42:59;;;;;;;22.80;11.60;;;12.20;99.90;;;;;;4986187;28;20598;-82
2021/12/16 13:45:35;;;;;;;24.80;12.20;;;12.10;99.90;;;;;;4987940;28;20204;-79
2021/12/16 13:48:28;;;;;;;23.17;11.87;;;12.20;99.90;;;;;;4989050;28;20230;-79
2021/12/16 14:07:55;;;;;;;24.10;12.10;;;12.60;99.90;;;;;;4983916;28;20255;-85
2021/12/16 14:10:47;;;;;;;24.63;12.27;;;12.60;99.90;;;;;;4986477;28;20234;-82
2021/12/16 14:25:08;;;;;;;18.10;10.83;;;12.50;99.90;;;;;;4988473;28;20285;-84
2021/12/16 14:34:32;;;;;;;17.47;10.57;;;12.30;99.90;;;;;;4985117;28;20214;-80
2021/12/16 14:37:02;;;;;;;21.00;11.27;;;12.40;99.90;;;;;;4984361;28;20203;-86
2021/12/16 14:39:57;;;;;;;17.63;10.47;;;12.30;99.90;;;;;;4986810;28;20204;-84
2021/12/16 14:45:31;;;;;;;19.00;10.40;;;12.20;99.90;;;;;;4988774;28;20216;-88
2021/12/16 14:48:46;;;;;;;21.03;12.20;;;12.10;99.90;;;;;;4987829;28;20238;-83
2021/12/16 14:51:06;;;;;;;20.17;11.80;;;12.30;99.90;;;;;;4987051;28;20219;-80
2021/12/16 14:53:43;;;;;;;19.13;10.73;;;12.20;99.90;;;;;;4981330;28;20226;-82
2021/12/16 14:56:27;;;;;;;20.67;10.90;;;12.10;99.90;;;;;;4987752;28;20191;-84
2021/12/16 14:58:58;;;;;;;23.47;11.53;;;12.10;99.90;;;;;;4987330;28;20201;-83
2021/12/16 15:01:32;;;;;;;22.80;11.50;;;12.10;99.90;;;;;;4988691;28;20205;-82
2021/12/16 15:04:00;;;;;;;20.27;11.40;;;12.00;99.90;;;;;;4988149;28;20224;-83
2021/12/16 15:06:37;;;;;;;22.07;11.33;;;12.00;99.90;;;;;;4987125;28;20687;-79
2021/12/16 15:09:13;;;;;;;27.80;15.17;;;11.90;99.90;;;;;;4998338;28;20324;-79
2021/12/16 15:14:33;;;;;;;29.53;15.60;;;11.80;99.90;;;;;;4986964;28;20887;-76
2021/12/16 15:17:19;;;;;;;29.37;15.07;;;11.80;99.90;;;;;;4987657;28;20253;-75
2021/12/16 15:33:01;;;;;;;29.97;15.23;;;11.40;99.90;;;;;;4986854;28;20688;-75
2021/12/16 15:42:47;;;;;;;27.00;14.73;;;11.20;99.90;;;;;;4984793;28;20203;-77
2021/12/16 15:45:44;;;;;;;25.73;14.10;;;11.10;99.90;;;;;;4989471;28;20618;-74
2021/12/16 15:48:16;;;;;;;28.43;15.50;;;11.10;99.90;;;;;;4986845;28;20228;-77
2021/12/16 15:50:50;;;;;;;30.33;14.17;;;11.20;99.90;;;;;;4984031;28;20196;-75
2021/12/16 15:53:30;;;;;;;30.53;14.80;;;11.10;99.90;;;;;;4988082;28;20222;-75
2021/12/16 15:56:08;;;;;;;29.30;15.47;;;11.10;99.90;;;;;;5001882;28;20200;-75
2021/12/16 15:58:40;;;;;;;25.67;13.67;;;11.10;99.90;;;;;;4985106;28;20216;-77
2021/12/16 16:01:16;;;;;;;26.47;14.90;;;11.10;99.90;;;;;;4981587;28;20614;-75
2021/12/16 16:03:43;;;;;;;28.23;15.87;;;11.10;99.90;;;;;;4988050;28;20219;-75
2021/12/16 16:06:13;;;;;;;26.17;15.53;;;11.00;99.90;;;;;;4989945;28;20200;-74
2021/12/16 16:09:10;;;;;;;28.43;15.23;;;11.00;99.90;;;;;;4983500;28;20236;-75
2021/12/16 16:11:46;;;;;;;28.07;15.23;;;11.00;99.90;;;;;;5004393;28;20199;-74
2021/12/16 16:14:14;;;;;;;33.07;15.70;;;11.00;99.90;;;;;;4989355;28;20719;-74
2021/12/16 16:16:48;;;;;;;32.37;15.70;;;10.90;99.90;;;;;;4990766;28;20592;-75
2021/12/16 16:19:21;;;;;;;31.60;16.43;;;10.80;99.90;;;;;;4994019;28;20626;-75
2021/12/16 16:21:51;;;;;;;27.70;15.10;;;10.70;99.90;;;;;;4991881;28;20762;-77
2021/12/16 16:24:23;;;;;;;27.80;15.40;;;10.50;99.90;;;;;;4991522;28;20231;-74
2021/12/16 16:26:53;;;;;;;29.23;14.93;;;10.30;99.90;;;;;;5004065;28;20222;-75
2021/12/16 16:29:23;;;;;;;29.00;15.90;;;10.40;99.90;;;;;;4989683;28;20231;-79